createdAt,value
2019-02-10T00:00:44.690Z,71.78
2019-02-10T00:03:13.192Z,72.11
2019-02-10T00:05:41.645Z,71.85
2019-02-10T00:08:10.157Z,72.01
2019-02-10T00:10:38.616Z,72.08
2019-02-10T00:13:26.079Z,72.42
2019-02-10T00:15:55.124Z,72.43
2019-02-10T00:18:24.294Z,72.35
2019-02-10T00:20:52.757Z,73.14
2019-02-10T00:23:21.266Z,72.15
2019-02-10T00:25:49.729Z,72.63
2019-02-10T00:28:18.265Z,73.06
2019-02-10T00:30:46.739Z,72.95
2019-02-10T00:33:15.204Z,72.68
2019-02-10T00:35:43.701Z,72.39
2019-02-10T00:38:12.136Z,72.75
2019-02-10T00:40:40.622Z,73.28
2019-02-10T00:43:09.076Z,72.85
2019-02-10T00:45:37.558Z,73.14
2019-02-10T00:48:06.100Z,73.67
2019-02-10T00:50:34.581Z,73.19
2019-02-10T00:53:03.032Z,73.28
2019-02-10T00:55:31.509Z,73.11
2019-02-10T00:57:59.966Z,73.01
2019-02-10T01:00:28.444Z,73.86
2019-02-10T01:02:56.949Z,73.48
2019-02-10T01:05:25.436Z,73.66
2019-02-10T01:07:53.996Z,73.96
2019-02-10T01:10:25.342Z,73.42
2019-02-10T01:12:53.862Z,73.88
2019-02-10T01:15:22.336Z,73.63
2019-02-10T01:17:50.810Z,74.03
2019-02-10T01:20:19.355Z,74.24
2019-02-10T01:22:47.814Z,74.96
2019-02-10T01:25:16.368Z,74.07
2019-02-10T01:27:44.822Z,75.16
2019-02-10T01:30:15.248Z,74.26
2019-02-10T01:32:43.832Z,74.65
2019-02-10T01:35:12.499Z,75.73
2019-02-10T01:37:40.999Z,76.00
2019-02-10T01:40:11.044Z,75.30
2019-02-10T01:42:39.491Z,74.94
2019-02-10T01:45:10.798Z,75.42
2019-02-10T01:47:39.324Z,76.26
2019-02-10T01:50:10.272Z,75.98
2019-02-10T01:52:38.783Z,77.14
2019-02-10T01:55:12.557Z,77.65
2019-02-10T01:57:41.015Z,76.55
2019-02-10T02:00:12.412Z,76.39
2019-02-10T02:02:40.886Z,76.46
2019-02-10T02:05:09.627Z,76.89
2019-02-10T02:07:38.084Z,77.56
2019-02-10T02:10:12.489Z,76.38
2019-02-10T02:12:41.220Z,77.71
2019-02-10T02:15:12.762Z,77.91
2019-02-10T02:17:41.282Z,76.71
2019-02-10T02:20:11.298Z,77.64
2019-02-10T02:22:39.749Z,77.37
2019-02-10T02:25:11.278Z,77.67
2019-02-10T02:27:39.811Z,77.93
2019-02-10T02:30:10.912Z,77.06
2019-02-10T02:32:39.366Z,76.89
2019-02-10T02:35:07.929Z,77.91
2019-02-10T02:37:36.372Z,77.01
2019-02-10T02:40:07.096Z,77.72
2019-02-10T02:42:35.553Z,78.40
2019-02-10T02:45:04.612Z,77.57
2019-02-10T02:47:33.065Z,78.82
2019-02-10T02:50:01.541Z,77.98
2019-02-10T02:52:29.990Z,78.57
2019-02-10T02:54:58.484Z,78.41
2019-02-10T02:57:26.952Z,78.08
2019-02-10T02:59:55.445Z,78.24
2019-02-10T03:02:23.918Z,78.12
2019-02-10T03:04:52.368Z,78.12
2019-02-10T03:07:20.866Z,78.97
2019-02-10T03:09:49.340Z,78.64
2019-02-10T03:12:17.806Z,78.38
2019-02-10T03:14:46.262Z,78.44
2019-02-10T03:17:14.773Z,77.73
2019-02-10T03:19:43.233Z,77.71
2019-02-10T03:22:11.734Z,78.44
2019-02-10T03:24:40.197Z,78.32
2019-02-10T03:27:08.697Z,78.65
2019-02-10T03:29:37.163Z,78.76
2019-02-10T03:32:05.781Z,78.70
2019-02-10T03:34:34.291Z,78.89
2019-02-10T03:37:02.781Z,79.50
2019-02-10T03:39:31.239Z,78.64
2019-02-10T03:41:59.752Z,79.88
2019-02-10T03:44:28.196Z,79.69
2019-02-10T03:46:56.698Z,79.67
2019-02-10T03:49:25.134Z,80.79
2019-02-10T03:51:53.645Z,78.89
2019-02-10T03:54:22.173Z,78.71
2019-02-10T03:56:50.649Z,78.99
2019-02-10T03:59:19.117Z,79.96
2019-02-10T04:01:47.697Z,79.26
2019-02-10T04:04:16.160Z,79.82
2019-02-10T04:06:46.300Z,80.27
2019-02-10T04:09:14.776Z,79.14
2019-02-10T04:11:43.255Z,79.91
2019-02-10T04:14:11.733Z,79.46
2019-02-10T04:16:40.214Z,80.94
2019-02-10T04:19:08.679Z,81.11
2019-02-10T04:21:37.165Z,79.68
2019-02-10T04:24:05.655Z,80.50
2019-02-10T04:26:34.139Z,80.72
2019-02-10T04:29:02.592Z,80.68
2019-02-10T04:31:31.076Z,79.89
2019-02-10T04:33:59.547Z,80.22
2019-02-10T04:36:28.028Z,81.40
2019-02-10T04:38:56.480Z,79.57
2019-02-10T04:41:24.959Z,80.51
2019-02-10T04:43:53.423Z,81.06
2019-02-10T04:46:21.913Z,81.00
2019-02-10T04:48:50.385Z,81.69
2019-02-10T04:51:18.852Z,81.77
2019-02-10T04:53:47.296Z,81.21
2019-02-10T04:56:16.907Z,81.59
2019-02-10T04:58:45.386Z,81.03
2019-02-10T05:01:13.879Z,81.35
2019-02-10T05:03:42.353Z,80.83
2019-02-10T05:06:10.833Z,80.42
2019-02-10T05:08:39.277Z,80.97
2019-02-10T05:11:07.803Z,80.91
2019-02-10T05:13:36.298Z,80.73
2019-02-10T05:16:04.779Z,81.51
2019-02-10T05:18:33.245Z,81.47
2019-02-10T05:21:01.689Z,80.40
2019-02-10T05:23:30.166Z,81.59
2019-02-10T05:25:58.649Z,80.75
2019-02-10T05:28:27.131Z,80.95
2019-02-10T05:30:55.658Z,81.11
2019-02-10T05:33:24.142Z,82.00
2019-02-10T05:35:52.615Z,80.77
2019-02-10T05:38:21.113Z,81.77
2019-02-10T05:40:49.575Z,81.15
2019-02-10T05:43:18.065Z,81.46
2019-02-10T05:45:46.513Z,80.40
2019-02-10T05:48:14.982Z,81.69
2019-02-10T05:50:43.439Z,82.19
2019-02-10T05:53:11.918Z,81.24
2019-02-10T05:55:40.374Z,81.36
2019-02-10T05:58:08.867Z,80.91
2019-02-10T06:00:37.328Z,80.68
2019-02-10T06:03:05.808Z,80.82
2019-02-10T06:05:34.280Z,81.76
2019-02-10T06:08:02.756Z,81.02
2019-02-10T06:10:31.217Z,80.55
2019-02-10T06:12:59.702Z,81.05
2019-02-10T06:15:28.167Z,80.92
2019-02-10T06:17:56.653Z,81.36
2019-02-10T06:20:25.112Z,80.55
2019-02-10T06:22:53.590Z,81.06
2019-02-10T06:25:22.052Z,80.82
2019-02-10T06:27:50.577Z,81.35
2019-02-10T06:30:19.150Z,81.01
2019-02-10T06:32:47.586Z,80.85
2019-02-10T06:35:16.043Z,81.45
2019-02-10T06:37:45.097Z,81.05
2019-02-10T06:40:13.599Z,81.08
2019-02-10T06:42:42.108Z,80.68
2019-02-10T06:45:11.329Z,81.16
2019-02-10T06:47:39.809Z,80.97
2019-02-10T06:50:08.803Z,80.92
2019-02-10T06:52:37.283Z,81.08
2019-02-10T06:55:08.377Z,80.94
2019-02-10T06:57:36.874Z,80.84
2019-02-10T07:00:16.664Z,80.47
2019-02-10T07:03:21.352Z,80.41
2019-02-10T07:05:49.818Z,80.65
2019-02-10T07:08:18.313Z,80.72
2019-02-10T07:10:46.781Z,80.71
2019-02-10T07:13:18.313Z,80.19
2019-02-10T07:16:23.075Z,80.62
2019-02-10T07:19:28.118Z,80.34
2019-02-10T07:21:56.639Z,80.52
2019-02-10T07:24:47.000Z,80.34
2019-02-10T07:27:18.654Z,80.62
2019-02-10T07:30:05.185Z,80.41
2019-02-10T07:32:42.561Z,80.42
2019-02-10T07:35:29.153Z,80.25
2019-02-10T07:38:19.075Z,80.49
2019-02-10T07:40:59.492Z,80.05
2019-02-10T07:43:33.525Z,80.20
2019-02-10T07:46:24.624Z,79.81
2019-02-10T07:49:05.201Z,80.23
2019-02-10T07:51:39.342Z,80.45
2019-02-10T07:54:28.998Z,80.27
2019-02-10T07:57:00.498Z,80.25
2019-02-10T07:59:34.751Z,79.99
2019-02-10T08:02:27.234Z,79.80
2019-02-10T08:05:07.666Z,79.85
2019-02-10T08:08:07.259Z,80.13
2019-02-10T08:11:01.315Z,80.05
2019-02-10T08:13:38.498Z,79.95
2019-02-10T08:16:35.024Z,79.96
2019-02-10T08:19:21.706Z,80.61
2019-02-10T08:22:26.402Z,82.03
2019-02-10T08:25:00.597Z,82.13
2019-02-10T08:27:37.691Z,82.76
2019-02-10T08:30:33.089Z,82.83
2019-02-10T08:33:13.390Z,82.79
2019-02-10T08:35:44.947Z,83.41
2019-02-10T08:38:39.190Z,82.88
2019-02-10T08:41:33.294Z,83.90
2019-02-10T08:44:30.734Z,84.74
2019-02-10T08:47:04.895Z,84.46
2019-02-10T08:50:02.408Z,84.96
2019-02-10T08:52:42.804Z,85.07
2019-02-10T08:55:11.299Z,86.33
2019-02-10T08:57:39.760Z,86.98
2019-02-10T09:00:11.206Z,86.70
2019-02-10T09:02:39.666Z,88.15
2019-02-10T09:05:08.683Z,88.90
2019-02-10T09:07:37.142Z,89.06
2019-02-10T09:10:13.103Z,89.88
2019-02-10T09:12:41.553Z,90.40
2019-02-10T09:15:12.151Z,90.44
2019-02-10T09:17:40.639Z,89.78
2019-02-10T09:20:11.064Z,90.55
2019-02-10T09:22:39.531Z,90.87
2019-02-10T09:25:10.749Z,90.42
2019-02-10T09:27:39.249Z,90.91
2019-02-10T09:30:15.084Z,91.20
2019-02-10T09:32:43.534Z,91.53
2019-02-10T09:35:12.016Z,91.36
2019-02-10T09:37:40.522Z,91.97
2019-02-10T09:40:11.541Z,92.78
2019-02-10T09:42:39.995Z,93.03
2019-02-10T09:45:12.805Z,92.12
2019-02-10T09:47:41.265Z,92.56
2019-02-10T09:50:15.695Z,93.36
2019-02-10T09:52:44.153Z,93.68
2019-02-10T09:55:12.617Z,93.54
2019-02-10T09:57:41.100Z,93.41
2019-02-10T10:00:12.361Z,93.80
2019-02-10T10:02:40.846Z,93.20
2019-02-10T10:05:11.886Z,93.96
2019-02-10T10:07:40.439Z,94.01
2019-02-10T10:10:11.452Z,93.91
2019-02-10T10:12:39.947Z,94.33
2019-02-10T10:15:16.632Z,94.55
2019-02-10T10:17:45.113Z,94.25
2019-02-10T10:20:16.639Z,94.71
2019-02-10T10:22:45.118Z,94.27
2019-02-10T10:25:13.620Z,94.92
2019-02-10T10:27:42.081Z,94.41
2019-02-10T10:30:19.373Z,94.79
2019-02-10T10:32:47.851Z,94.78
2019-02-10T10:35:16.313Z,94.94
2019-02-10T10:37:44.812Z,94.67
2019-02-10T10:40:13.435Z,94.38
2019-02-10T10:42:41.928Z,95.28
2019-02-10T10:45:13.193Z,95.34
2019-02-10T10:47:41.684Z,95.53
2019-02-10T10:50:12.099Z,95.92
2019-02-10T10:52:40.588Z,95.75
2019-02-10T10:55:10.906Z,95.82
2019-02-10T10:57:39.413Z,95.96
2019-02-10T11:00:17.699Z,95.45
2019-02-10T11:02:46.181Z,95.70
2019-02-10T11:05:15.007Z,95.98
2019-02-10T11:07:43.609Z,95.90
2019-02-10T11:10:15.199Z,95.42
2019-02-10T11:12:43.678Z,95.86
2019-02-10T11:15:14.279Z,95.98
2019-02-10T11:17:42.762Z,95.62
2019-02-10T11:20:12.283Z,95.46
2019-02-10T11:22:40.769Z,95.87
2019-02-10T11:25:11.410Z,95.89
2019-02-10T11:27:39.893Z,95.95
2019-02-10T11:30:16.089Z,95.66
2019-02-10T11:32:44.564Z,95.45
2019-02-10T11:35:13.389Z,95.50
2019-02-10T11:37:41.871Z,95.52
2019-02-10T11:40:13.939Z,95.28
2019-02-10T11:42:42.423Z,95.40
2019-02-10T11:45:13.378Z,95.68
2019-02-10T11:47:41.871Z,95.69
2019-02-10T11:50:14.146Z,95.68
2019-02-10T11:52:42.642Z,95.43
2019-02-10T11:55:12.139Z,95.81
2019-02-10T11:57:40.620Z,95.33
2019-02-10T12:00:14.799Z,95.96
2019-02-10T12:02:43.332Z,95.52
2019-02-10T12:05:12.067Z,95.43
2019-02-10T12:07:40.548Z,95.26
2019-02-10T12:10:11.306Z,95.76
2019-02-10T12:12:39.785Z,95.42
2019-02-10T12:15:17.293Z,95.13
2019-02-10T12:17:45.762Z,94.88
2019-02-10T12:20:16.433Z,95.13
2019-02-10T12:22:50.328Z,95.12
2019-02-10T12:25:16.169Z,95.34
2019-02-10T12:27:45.435Z,95.85
2019-02-10T12:30:15.232Z,95.14
2019-02-10T12:32:43.792Z,95.06
2019-02-10T12:35:12.943Z,95.08
2019-02-10T12:37:41.430Z,94.88
2019-02-10T12:40:11.520Z,95.17
2019-02-10T12:42:40.024Z,95.19
2019-02-10T12:45:10.422Z,95.17
2019-02-10T12:47:38.904Z,95.47
2019-02-10T12:50:16.885Z,95.55
2019-02-10T12:52:45.342Z,95.40
2019-02-10T12:55:13.998Z,95.58
2019-02-10T12:57:42.509Z,95.21
2019-02-10T13:00:18.349Z,95.15
2019-02-10T13:02:46.831Z,95.36
2019-02-10T13:05:15.304Z,95.18
2019-02-10T13:07:43.781Z,95.06
2019-02-10T13:10:17.378Z,95.15
2019-02-10T13:12:44.955Z,95.26
2019-02-10T13:15:13.989Z,95.31
2019-02-10T13:17:42.434Z,95.38
2019-02-10T13:20:12.351Z,95.82
2019-02-10T13:22:40.813Z,95.41
2019-02-10T13:25:11.124Z,94.90
2019-02-10T13:27:39.568Z,95.42
2019-02-10T13:30:20.036Z,94.98
2019-02-10T13:32:48.474Z,95.34
2019-02-10T13:35:16.961Z,95.08
2019-02-10T13:37:45.428Z,94.96
2019-02-10T13:40:17.144Z,94.87
2019-02-10T13:42:45.851Z,95.59
2019-02-10T13:45:14.329Z,95.02
2019-02-10T13:47:42.804Z,94.62
2019-02-10T13:50:18.597Z,94.69
2019-02-10T13:52:47.122Z,94.80
2019-02-10T13:55:16.552Z,94.77
2019-02-10T13:57:45.005Z,94.67
2019-02-10T14:00:21.475Z,95.08
2019-02-10T14:02:49.917Z,94.91
2019-02-10T14:05:18.408Z,95.38
2019-02-10T14:07:46.862Z,95.12
2019-02-10T14:10:24.978Z,94.94
2019-02-10T14:12:47.511Z,95.26
2019-02-10T14:15:17.337Z,95.27
2019-02-10T14:17:45.787Z,95.17
2019-02-10T14:20:18.306Z,95.47
2019-02-10T14:22:46.766Z,95.20
2019-02-10T14:25:15.471Z,95.33
2019-02-10T14:27:43.943Z,95.13
2019-02-10T14:30:17.827Z,95.63
2019-02-10T14:32:46.283Z,95.37
2019-02-10T14:35:14.754Z,94.98
2019-02-10T14:37:43.192Z,95.31
2019-02-10T14:40:11.923Z,95.32
2019-02-10T14:42:40.373Z,95.41
2019-02-10T14:45:12.968Z,95.35
2019-02-10T14:47:41.696Z,95.10
2019-02-10T14:50:17.793Z,95.92
2019-02-10T14:52:46.241Z,96.18
2019-02-10T14:55:14.729Z,95.64
2019-02-10T14:57:43.194Z,95.87
2019-02-10T15:00:14.077Z,96.17
2019-02-10T15:02:42.525Z,95.58
2019-02-10T15:05:11.076Z,96.02
2019-02-10T15:07:39.630Z,96.17
2019-02-10T15:10:16.540Z,96.00
2019-02-10T15:12:44.992Z,96.25
2019-02-10T15:15:13.457Z,96.30
2019-02-10T15:17:41.918Z,96.68
2019-02-10T15:20:11.834Z,96.95
2019-02-10T15:22:40.352Z,96.42
2019-02-10T15:25:13.857Z,97.01
2019-02-10T15:27:42.391Z,96.53
2019-02-10T15:30:16.134Z,96.35
2019-02-10T15:32:44.581Z,96.76
2019-02-10T15:35:13.133Z,97.10
2019-02-10T15:37:41.574Z,97.04
2019-02-10T15:40:13.641Z,97.00
2019-02-10T15:42:42.107Z,96.78
2019-02-10T15:45:12.444Z,96.78
2019-02-10T15:47:40.894Z,96.87
2019-02-10T15:50:13.681Z,96.67
2019-02-10T15:52:42.134Z,96.96
2019-02-10T15:55:14.422Z,96.80
2019-02-10T15:57:42.881Z,96.79
2019-02-10T16:00:17.539Z,96.83
2019-02-10T16:02:45.989Z,96.51
2019-02-10T16:05:14.518Z,96.67
2019-02-10T16:07:43.024Z,96.74
2019-02-10T16:10:12.075Z,96.79
2019-02-10T16:12:40.694Z,96.60
2019-02-10T16:15:11.576Z,97.02
2019-02-10T16:17:40.029Z,96.95
2019-02-10T16:20:11.770Z,96.70
2019-02-10T16:22:40.255Z,96.72
2019-02-10T16:25:09.351Z,96.96
2019-02-10T16:27:37.830Z,96.92
2019-02-10T16:30:09.307Z,96.97
2019-02-10T16:32:37.768Z,97.11
2019-02-10T16:35:07.473Z,97.15
2019-02-10T16:37:35.956Z,97.27
2019-02-10T16:40:07.000Z,96.99
2019-02-10T16:42:35.476Z,96.58
2019-02-10T16:45:04.410Z,96.48
2019-02-10T16:47:32.913Z,96.29
2019-02-10T16:50:01.370Z,96.04
2019-02-10T16:52:29.853Z,96.44
2019-02-10T16:54:58.325Z,96.09
2019-02-10T16:57:26.784Z,96.50
2019-02-10T16:59:55.264Z,95.76
2019-02-10T17:02:23.741Z,96.09
2019-02-10T17:04:52.192Z,95.38
2019-02-10T17:07:20.683Z,95.50
2019-02-10T17:09:49.170Z,95.45
2019-02-10T17:12:17.667Z,95.10
2019-02-10T17:14:46.126Z,95.34
2019-02-10T17:17:14.637Z,94.96
2019-02-10T17:19:43.109Z,95.18
2019-02-10T17:22:11.601Z,94.78
2019-02-10T17:24:40.064Z,94.24
2019-02-10T17:27:08.565Z,94.36
2019-02-10T17:29:37.039Z,94.46
2019-02-10T17:32:05.526Z,94.11
2019-02-10T17:34:33.991Z,94.06
2019-02-10T17:37:02.524Z,93.54
2019-02-10T17:39:30.999Z,93.40
2019-02-10T17:41:59.485Z,93.38
2019-02-10T17:44:27.927Z,93.24
2019-02-10T17:46:56.413Z,92.64
2019-02-10T17:49:24.891Z,92.44
2019-02-10T17:51:53.373Z,92.08
2019-02-10T17:54:21.827Z,91.68
2019-02-10T17:56:50.302Z,91.46
2019-02-10T17:59:18.783Z,91.74
2019-02-10T18:01:47.303Z,91.53
2019-02-10T18:04:15.779Z,91.46
2019-02-10T18:06:44.266Z,91.57
2019-02-10T18:09:12.746Z,91.46
2019-02-10T18:11:41.202Z,91.15
2019-02-10T18:14:11.325Z,90.93
2019-02-10T18:16:44.410Z,90.48
2019-02-10T18:19:17.296Z,90.75
2019-02-10T18:21:47.399Z,90.68
2019-02-10T18:24:32.314Z,90.29
2019-02-10T18:27:18.874Z,90.06
2019-02-10T18:29:49.010Z,90.25
2019-02-10T18:32:19.112Z,90.26
2019-02-10T18:34:52.418Z,89.91
2019-02-10T18:37:34.803Z,89.94
2019-02-10T18:40:07.713Z,90.08
2019-02-10T18:42:49.580Z,90.63
2019-02-10T18:45:19.700Z,91.03
2019-02-10T18:47:49.793Z,91.57
2019-02-10T18:50:22.568Z,91.71
2019-02-10T18:52:52.683Z,92.42
2019-02-10T18:55:38.058Z,92.76
2019-02-10T18:58:10.916Z,93.04
2019-02-10T19:00:46.776Z,93.74
2019-02-10T19:03:16.908Z,93.21
2019-02-10T19:05:47.009Z,93.58
2019-02-10T19:08:32.185Z,93.44
2019-02-10T19:11:16.891Z,93.72
2019-02-10T19:13:49.964Z,93.07
2019-02-10T19:16:20.063Z,93.31
2019-02-10T19:19:04.934Z,93.03
2019-02-10T19:21:50.369Z,93.71
2019-02-10T19:24:20.503Z,93.80
2019-02-10T19:27:07.020Z,93.63
2019-02-10T19:29:52.196Z,93.37
2019-02-10T19:32:34.471Z,93.74
2019-02-10T19:35:13.603Z,93.80
2019-02-10T19:37:43.698Z,93.84
2019-02-10T19:40:16.519Z,93.63
2019-02-10T19:42:52.541Z,93.53
2019-02-10T19:45:38.735Z,94.28
2019-02-10T19:48:17.713Z,94.20
2019-02-10T19:50:47.887Z,93.57
2019-02-10T19:53:20.566Z,93.51
2019-02-10T19:55:53.452Z,93.60
2019-02-10T19:58:29.458Z,93.57
2019-02-10T20:00:59.571Z,93.50
2019-02-10T20:03:45.951Z,93.85
2019-02-10T20:06:16.092Z,93.96
2019-02-10T20:08:48.919Z,93.86
2019-02-10T20:11:19.025Z,93.59
2019-02-10T20:13:49.153Z,93.62
2019-02-10T20:16:19.262Z,93.72
2019-02-10T20:18:49.461Z,94.75
2019-02-10T20:21:22.605Z,94.03
2019-02-10T20:24:09.174Z,93.99
2019-02-10T20:26:57.326Z,93.68
2019-02-10T20:29:43.775Z,94.08
2019-02-10T20:32:13.898Z,93.96
2019-02-10T20:34:44.080Z,93.93
2019-02-10T20:37:20.283Z,94.10
2019-02-10T20:39:59.010Z,93.96
2019-02-10T20:42:29.102Z,93.49
2019-02-10T20:45:15.483Z,93.63
2019-02-10T20:47:48.243Z,93.48
2019-02-10T20:50:21.054Z,93.66
2019-02-10T20:52:57.070Z,93.49
2019-02-10T20:55:27.201Z,93.08
2019-02-10T20:58:00.017Z,93.05
2019-02-10T21:00:46.313Z,93.00
2019-02-10T21:03:16.413Z,92.75
2019-02-10T21:05:52.378Z,92.92
2019-02-10T21:08:34.228Z,92.59
2019-02-10T21:11:07.160Z,92.52
2019-02-10T21:13:46.546Z,92.22
2019-02-10T21:19:13.924Z,91.67
2019-02-10T21:21:59.334Z,91.52
2019-02-10T21:24:45.636Z,91.67
2019-02-10T21:27:27.712Z,91.44
2019-02-10T21:30:03.583Z,91.47
2019-02-10T21:32:49.552Z,91.29
2019-02-10T21:35:31.545Z,91.15
2019-02-10T21:38:07.377Z,90.55
2019-02-10T21:40:37.501Z,90.15
2019-02-10T21:43:07.600Z,89.92
2019-02-10T21:45:46.400Z,89.96
2019-02-10T21:48:17.541Z,90.32
2019-02-10T21:50:46.076Z,90.26
2019-02-10T21:53:14.529Z,90.33
2019-02-10T21:55:42.979Z,90.23
2019-02-10T21:58:11.466Z,90.53
2019-02-10T22:00:39.915Z,91.02
2019-02-10T22:03:08.398Z,91.04
2019-02-10T22:05:36.850Z,91.29
2019-02-10T22:08:05.336Z,91.79
2019-02-10T22:10:33.796Z,91.42
2019-02-10T22:13:02.285Z,91.25
2019-02-10T22:15:30.736Z,91.56
2019-02-10T22:17:59.223Z,91.17
2019-02-10T22:20:27.668Z,91.08
2019-02-10T22:22:56.149Z,91.47
2019-02-10T22:25:24.608Z,91.28
2019-02-10T22:27:53.133Z,91.42
2019-02-10T22:30:21.602Z,91.57
2019-02-10T22:32:50.129Z,91.46
2019-02-10T22:35:18.527Z,91.40
2019-02-10T22:37:47.019Z,91.17
2019-02-10T22:40:15.470Z,90.75
2019-02-10T22:42:45.947Z,90.31
2019-02-10T22:45:14.143Z,90.51
2019-02-10T22:47:42.632Z,89.79
2019-02-10T22:50:14.757Z,89.97
2019-02-10T22:52:43.281Z,89.50
2019-02-10T22:55:11.810Z,89.11
2019-02-10T22:57:41.238Z,88.87
2019-02-10T23:00:38.854Z,88.63
2019-02-10T23:03:07.516Z,88.65
2019-02-10T23:05:36.003Z,88.42
2019-02-10T23:08:04.557Z,88.09
2019-02-10T23:10:35.802Z,87.75
2019-02-10T23:13:04.282Z,87.58
2019-02-10T23:15:32.733Z,87.53
2019-02-10T23:18:01.221Z,87.54
2019-02-10T23:20:29.698Z,87.20
2019-02-10T23:22:58.154Z,87.02
2019-02-10T23:25:26.620Z,86.85
2019-02-10T23:27:55.072Z,87.23
2019-02-10T23:30:23.559Z,87.12
2019-02-10T23:32:52.005Z,86.94
2019-02-10T23:35:20.487Z,86.92
2019-02-10T23:37:48.951Z,86.72
2019-02-10T23:40:17.436Z,87.22
2019-02-10T23:42:45.885Z,87.37
2019-02-10T23:45:14.383Z,87.51
2019-02-10T23:47:42.823Z,87.81
2019-02-10T23:50:11.303Z,88.23
2019-02-10T23:52:39.788Z,88.84
2019-02-10T23:55:08.334Z,89.67
2019-02-10T23:57:36.778Z,90.60
